sensor_id;sensor_type;location;lat;lon;timestamp;temperature;humidity
37242;DHT22;23135;51.078;12.108;2024-03-02T00:01:10;5.90;99.90
37242;DHT22;23135;51.078;12.108;2024-03-02T00:03:37;5.90;99.90
37242;DHT22;23135;51.078;12.108;2024-03-02T00:06:03;5.90;99.90
37242;DHT22;23135;51.078;12.108;2024-03-02T00:08:29;5.90;99.90
37242;DHT22;23135;51.078;12.108;2024-03-02T00:10:59;5.90;99.90
37242;DHT22;23135;51.078;12.108;2024-03-02T00:13:26;5.90;99.90
37242;DHT22;23135;51.078;12.108;2024-03-02T00:15:53;5.90;99.90
37242;DHT22;23135;51.078;12.108;2024-03-02T00:18:32;5.90;99.90
37242;DHT22;23135;51.078;12.108;2024-03-02T00:20:58;5.90;99.90
37242;DHT22;23135;51.078;12.108;2024-03-02T00:23:27;5.90;99.90
37242;DHT22;23135;51.078;12.108;2024-03-02T00:25:56;5.90;99.90
37242;DHT22;23135;51.078;12.108;2024-03-02T00:33:32;6.00;99.90
37242;DHT22;23135;51.078;12.108;2024-03-02T00:35:58;6.00;99.90
37242;DHT22;23135;51.078;12.108;2024-03-02T00:38:25;6.00;99.90
37242;DHT22;23135;51.078;12.108;2024-03-02T00:40:51;6.00;99.90
37242;DHT22;23135;51.078;12.108;2024-03-02T00:43:39;5.90;99.90
37242;DHT22;23135;51.078;12.108;2024-03-02T00:46:06;5.90;99.90
37242;DHT22;23135;51.078;12.108;2024-03-02T00:48:32;5.90;99.90
37242;DHT22;23135;51.078;12.108;2024-03-02T00:51:04;5.80;99.90
37242;DHT22;23135;51.078;12.108;2024-03-02T00:53:30;5.70;99.90
37242;DHT22;23135;51.078;12.108;2024-03-02T00:55:56;5.60;99.90
37242;DHT22;23135;51.078;12.108;2024-03-02T00:58:22;5.60;99.90
37242;DHT22;23135;51.078;12.108;2024-03-02T01:00:47;5.50;99.90
37242;DHT22;23135;51.078;12.108;2024-03-02T01:03:13;5.50;99.90
37242;DHT22;23135;51.078;12.108;2024-03-02T01:05:42;5.50;99.90
37242;DHT22;23135;51.078;12.108;2024-03-02T01:08:09;5.50;99.90
37242;DHT22;23135;51.078;12.108;2024-03-02T01:10:34;5.50;99.90
37242;DHT22;23135;51.078;12.108;2024-03-02T01:13:00;5.40;99.90
37242;DHT22;23135;51.078;12.108;2024-03-02T01:15:25;5.40;99.90
37242;DHT22;23135;51.078;12.108;2024-03-02T01:17:51;5.40;99.90
37242;DHT22;23135;51.078;12.108;2024-03-02T01:20:17;5.40;99.90
37242;DHT22;23135;51.078;12.108;2024-03-02T01:22:42;5.40;99.90
37242;DHT22;23135;51.078;12.108;2024-03-02T01:25:08;5.40;99.90
37242;DHT22;23135;51.078;12.108;2024-03-02T01:27:34;5.40;99.90
37242;DHT22;23135;51.078;12.108;2024-03-02T01:29:59;5.30;99.90
37242;DHT22;23135;51.078;12.108;2024-03-02T01:32:25;5.30;99.90
37242;DHT22;23135;51.078;12.108;2024-03-02T01:34:51;5.30;99.90
37242;DHT22;23135;51.078;12.108;2024-03-02T01:37:16;5.30;99.90
37242;DHT22;23135;51.078;12.108;2024-03-02T01:39:42;5.30;99.90
37242;DHT22;23135;51.078;12.108;2024-03-02T01:42:07;5.20;99.90
37242;DHT22;23135;51.078;12.108;2024-03-02T01:44:33;5.20;99.90
37242;DHT22;23135;51.078;12.108;2024-03-02T01:46:59;5.20;99.90
37242;DHT22;23135;51.078;12.108;2024-03-02T01:49:24;5.20;99.90
37242;DHT22;23135;51.078;12.108;2024-03-02T01:51:50;5.20;99.90
37242;DHT22;23135;51.078;12.108;2024-03-02T01:54:16;5.10;99.90
37242;DHT22;23135;51.078;12.108;2024-03-02T01:56:41;5.10;99.90
37242;DHT22;23135;51.078;12.108;2024-03-02T01:59:07;5.10;99.90
37242;DHT22;23135;51.078;12.108;2024-03-02T02:01:32;5.00;99.90
37242;DHT22;23135;51.078;12.108;2024-03-02T02:03:58;5.10;99.90
37242;DHT22;23135;51.078;12.108;2024-03-02T02:06:23;5.10;99.90
37242;DHT22;23135;51.078;12.108;2024-03-02T02:08:49;5.10;99.90
37242;DHT22;23135;51.078;12.108;2024-03-02T02:11:15;5.10;99.90
37242;DHT22;23135;51.078;12.108;2024-03-02T02:13:41;5.10;99.90
37242;DHT22;23135;51.078;12.108;2024-03-02T02:16:07;5.10;99.90
37242;DHT22;23135;51.078;12.108;2024-03-02T02:18:33;5.10;99.90
37242;DHT22;23135;51.078;12.108;2024-03-02T02:20:59;5.20;99.90
37242;DHT22;23135;51.078;12.108;2024-03-02T02:23:24;5.20;99.90
37242;DHT22;23135;51.078;12.108;2024-03-02T02:25:50;5.20;99.90
37242;DHT22;23135;51.078;12.108;2024-03-02T02:28:16;5.20;99.90
37242;DHT22;23135;51.078;12.108;2024-03-02T02:30:42;5.20;99.90
37242;DHT22;23135;51.078;12.108;2024-03-02T02:33:08;5.20;99.90
37242;DHT22;23135;51.078;12.108;2024-03-02T02:35:34;5.40;99.90
37242;DHT22;23135;51.078;12.108;2024-03-02T02:38:00;5.40;99.90
37242;DHT22;23135;51.078;12.108;2024-03-02T02:40:26;5.40;99.90
37242;DHT22;23135;51.078;12.108;2024-03-02T02:42:52;5.50;99.90
37242;DHT22;23135;51.078;12.108;2024-03-02T02:45:17;5.50;99.90
37242;DHT22;23135;51.078;12.108;2024-03-02T02:47:44;5.50;99.90
37242;DHT22;23135;51.078;12.108;2024-03-02T02:50:11;5.60;99.90
37242;DHT22;23135;51.078;12.108;2024-03-02T02:52:38;5.60;99.90
37242;DHT22;23135;51.078;12.108;2024-03-02T02:55:06;5.70;99.90
37242;DHT22;23135;51.078;12.108;2024-03-02T02:57:33;5.70;99.90
37242;DHT22;23135;51.078;12.108;2024-03-02T03:00:09;5.70;99.90
37242;DHT22;23135;51.078;12.108;2024-03-02T03:02:38;5.70;99.90
37242;DHT22;23135;51.078;12.108;2024-03-02T03:05:05;5.70;99.90
37242;DHT22;23135;51.078;12.108;2024-03-02T03:07:32;5.70;99.90
37242;DHT22;23135;51.078;12.108;2024-03-02T03:09:58;5.60;99.90
37242;DHT22;23135;51.078;12.108;2024-03-02T03:12:23;5.70;99.90
37242;DHT22;23135;51.078;12.108;2024-03-02T03:14:49;5.70;99.90
37242;DHT22;23135;51.078;12.108;2024-03-02T03:17:15;5.80;99.90
37242;DHT22;23135;51.078;12.108;2024-03-02T03:19:40;5.80;99.90
37242;DHT22;23135;51.078;12.108;2024-03-02T03:22:06;5.70;99.90
37242;DHT22;23135;51.078;12.108;2024-03-02T03:24:31;5.70;99.90
37242;DHT22;23135;51.078;12.108;2024-03-02T03:26:58;5.70;99.90
37242;DHT22;23135;51.078;12.108;2024-03-02T03:29:23;5.70;99.90
37242;DHT22;23135;51.078;12.108;2024-03-02T03:31:49;5.60;99.90
37242;DHT22;23135;51.078;12.108;2024-03-02T03:34:14;5.60;99.90
37242;DHT22;23135;51.078;12.108;2024-03-02T03:36:41;5.60;99.90
37242;DHT22;23135;51.078;12.108;2024-03-02T03:39:07;5.50;99.90
37242;DHT22;23135;51.078;12.108;2024-03-02T03:41:32;5.50;99.90
37242;DHT22;23135;51.078;12.108;2024-03-02T03:43:58;5.60;99.90
37242;DHT22;23135;51.078;12.108;2024-03-02T03:46:24;5.60;99.90
37242;DHT22;23135;51.078;12.108;2024-03-02T03:48:49;5.70;99.90
37242;DHT22;23135;51.078;12.108;2024-03-02T03:51:15;5.70;99.90
37242;DHT22;23135;51.078;12.108;2024-03-02T03:53:40;5.70;99.90
37242;DHT22;23135;51.078;12.108;2024-03-02T03:56:06;5.70;99.90
37242;DHT22;23135;51.078;12.108;2024-03-02T03:58:31;5.70;99.90
37242;DHT22;23135;51.078;12.108;2024-03-02T04:00:57;5.60;99.90
37242;DHT22;23135;51.078;12.108;2024-03-02T04:03:22;5.60;99.90
37242;DHT22;23135;51.078;12.108;2024-03-02T04:05:48;5.60;99.90
37242;DHT22;23135;51.078;12.108;2024-03-02T04:08:14;5.60;99.90
37242;DHT22;23135;51.078;12.108;2024-03-02T04:10:39;5.60;99.90
37242;DHT22;23135;51.078;12.108;2024-03-02T04:13:05;5.60;99.90
37242;DHT22;23135;51.078;12.108;2024-03-02T04:15:31;5.60;99.90
37242;DHT22;23135;51.078;12.108;2024-03-02T04:17:56;5.70;99.90
37242;DHT22;23135;51.078;12.108;2024-03-02T04:20:22;5.70;99.90
37242;DHT22;23135;51.078;12.108;2024-03-02T04:22:48;5.70;99.90
37242;DHT22;23135;51.078;12.108;2024-03-02T04:25:13;5.70;99.90
37242;DHT22;23135;51.078;12.108;2024-03-02T04:27:39;5.70;99.90
37242;DHT22;23135;51.078;12.108;2024-03-02T04:30:05;5.80;99.90
37242;DHT22;23135;51.078;12.108;2024-03-02T04:32:31;5.80;99.90
37242;DHT22;23135;51.078;12.108;2024-03-02T04:34:57;5.90;99.90
37242;DHT22;23135;51.078;12.108;2024-03-02T04:37:22;5.90;99.90
37242;DHT22;23135;51.078;12.108;2024-03-02T04:39:48;5.90;99.90
37242;DHT22;23135;51.078;12.108;2024-03-02T04:42:14;5.90;99.90
37242;DHT22;23135;51.078;12.108;2024-03-02T04:44:39;6.00;99.90
37242;DHT22;23135;51.078;12.108;2024-03-02T04:47:05;6.00;99.90
37242;DHT22;23135;51.078;12.108;2024-03-02T04:49:31;6.00;99.90
37242;DHT22;23135;51.078;12.108;2024-03-02T04:51:56;6.00;99.90
37242;DHT22;23135;51.078;12.108;2024-03-02T04:54:22;6.00;99.90
37242;DHT22;23135;51.078;12.108;2024-03-02T04:56:48;6.00;99.90
37242;DHT22;23135;51.078;12.108;2024-03-02T04:59:17;6.00;99.90
37242;DHT22;23135;51.078;12.108;2024-03-02T05:01:43;6.00;99.90
37242;DHT22;23135;51.078;12.108;2024-03-02T05:04:09;6.00;99.90
37242;DHT22;23135;51.078;12.108;2024-03-02T05:06:40;6.00;99.90
37242;DHT22;23135;51.078;12.108;2024-03-02T05:09:06;5.90;99.90
37242;DHT22;23135;51.078;12.108;2024-03-02T05:11:31;5.90;99.90
37242;DHT22;23135;51.078;12.108;2024-03-02T05:14:06;5.90;99.90
37242;DHT22;23135;51.078;12.108;2024-03-02T05:16:38;6.00;99.90
37242;DHT22;23135;51.078;12.108;2024-03-02T05:19:07;5.90;99.90
37242;DHT22;23135;51.078;12.108;2024-03-02T05:21:33;5.90;99.90
37242;DHT22;23135;51.078;12.108;2024-03-02T05:23:59;5.90;99.90
37242;DHT22;23135;51.078;12.108;2024-03-02T05:26:25;5.90;99.90
37242;DHT22;23135;51.078;12.108;2024-03-02T05:28:51;5.90;99.90
37242;DHT22;23135;51.078;12.108;2024-03-02T05:31:16;5.90;99.90
37242;DHT22;23135;51.078;12.108;2024-03-02T05:33:42;5.90;99.90
37242;DHT22;23135;51.078;12.108;2024-03-02T05:36:08;5.90;99.90
37242;DHT22;23135;51.078;12.108;2024-03-02T05:38:37;5.90;99.90
37242;DHT22;23135;51.078;12.108;2024-03-02T05:41:03;5.80;99.90
37242;DHT22;23135;51.078;12.108;2024-03-02T05:43:28;5.80;99.90
37242;DHT22;23135;51.078;12.108;2024-03-02T05:45:54;5.80;99.90
37242;DHT22;23135;51.078;12.108;2024-03-02T05:48:20;5.80;99.90
37242;DHT22;23135;51.078;12.108;2024-03-02T05:50:45;5.80;99.90
37242;DHT22;23135;51.078;12.108;2024-03-02T05:53:11;5.80;99.90
37242;DHT22;23135;51.078;12.108;2024-03-02T05:55:36;5.80;99.90
37242;DHT22;23135;51.078;12.108;2024-03-02T05:58:02;5.80;99.90
37242;DHT22;23135;51.078;12.108;2024-03-02T06:00:56;5.80;99.90
37242;DHT22;23135;51.078;12.108;2024-03-02T06:03:22;5.80;99.90
37242;DHT22;23135;51.078;12.108;2024-03-02T06:05:47;5.80;99.90
37242;DHT22;23135;51.078;12.108;2024-03-02T06:08:14;5.90;99.90
37242;DHT22;23135;51.078;12.108;2024-03-02T06:10:40;5.90;99.90
37242;DHT22;23135;51.078;12.108;2024-03-02T06:13:06;6.00;99.90
37242;DHT22;23135;51.078;12.108;2024-03-02T06:15:31;6.10;99.90
37242;DHT22;23135;51.078;12.108;2024-03-02T06:17:57;6.10;99.90
37242;DHT22;23135;51.078;12.108;2024-03-02T06:20:22;6.10;99.90
37242;DHT22;23135;51.078;12.108;2024-03-02T06:22:48;6.20;99.90
37242;DHT22;23135;51.078;12.108;2024-03-02T06:25:13;6.20;99.90
37242;DHT22;23135;51.078;12.108;2024-03-02T06:27:39;6.20;99.90
37242;DHT22;23135;51.078;12.108;2024-03-02T06:30:05;6.20;99.90
37242;DHT22;23135;51.078;12.108;2024-03-02T06:32:30;6.20;99.90
37242;DHT22;23135;51.078;12.108;2024-03-02T06:34:56;6.30;99.90
37242;DHT22;23135;51.078;12.108;2024-03-02T06:37:22;6.30;99.90
37242;DHT22;23135;51.078;12.108;2024-03-02T06:39:47;6.30;99.90
37242;DHT22;23135;51.078;12.108;2024-03-02T06:42:13;6.30;99.90
37242;DHT22;23135;51.078;12.108;2024-03-02T06:44:38;6.20;99.90
37242;DHT22;23135;51.078;12.108;2024-03-02T06:47:04;6.20;99.90
37242;DHT22;23135;51.078;12.108;2024-03-02T06:49:30;6.20;99.90
37242;DHT22;23135;51.078;12.108;2024-03-02T06:51:55;6.20;99.90
37242;DHT22;23135;51.078;12.108;2024-03-02T06:54:21;6.20;99.90
37242;DHT22;23135;51.078;12.108;2024-03-02T06:56:46;6.20;99.90
37242;DHT22;23135;51.078;12.108;2024-03-02T06:59:12;6.20;99.90
37242;DHT22;23135;51.078;12.108;2024-03-02T07:01:38;6.20;99.90
37242;DHT22;23135;51.078;12.108;2024-03-02T07:04:03;6.20;99.90
37242;DHT22;23135;51.078;12.108;2024-03-02T07:06:32;6.20;99.90
37242;DHT22;23135;51.078;12.108;2024-03-02T07:08:57;6.20;99.90
37242;DHT22;23135;51.078;12.108;2024-03-02T07:11:23;6.20;99.90
37242;DHT22;23135;51.078;12.108;2024-03-02T07:13:48;6.20;99.90
37242;DHT22;23135;51.078;12.108;2024-03-02T07:16:14;6.20;99.90
37242;DHT22;23135;51.078;12.108;2024-03-02T07:19:09;6.30;99.90
37242;DHT22;23135;51.078;12.108;2024-03-02T07:21:35;6.30;99.90
37242;DHT22;23135;51.078;12.108;2024-03-02T07:24:01;6.40;99.90
37242;DHT22;23135;51.078;12.108;2024-03-02T07:26:30;6.50;99.90
37242;DHT22;23135;51.078;12.108;2024-03-02T07:28:56;6.50;99.90
37242;DHT22;23135;51.078;12.108;2024-03-02T07:31:22;6.60;99.90
37242;DHT22;23135;51.078;12.108;2024-03-02T07:33:47;6.70;99.90
37242;DHT22;23135;51.078;12.108;2024-03-02T07:36:13;6.70;99.90
37242;DHT22;23135;51.078;12.108;2024-03-02T07:38:39;6.80;99.90
37242;DHT22;23135;51.078;12.108;2024-03-02T07:41:06;6.80;99.90
37242;DHT22;23135;51.078;12.108;2024-03-02T07:43:31;6.90;99.90
37242;DHT22;23135;51.078;12.108;2024-03-02T07:45:58;6.90;99.90
37242;DHT22;23135;51.078;12.108;2024-03-02T07:48:24;6.90;99.90
37242;DHT22;23135;51.078;12.108;2024-03-02T07:50:50;7.00;99.90
37242;DHT22;23135;51.078;12.108;2024-03-02T07:53:16;7.00;99.90
37242;DHT22;23135;51.078;12.108;2024-03-02T07:55:41;7.00;99.90
37242;DHT22;23135;51.078;12.108;2024-03-02T07:58:07;7.00;99.90
37242;DHT22;23135;51.078;12.108;2024-03-02T08:00:33;7.10;99.90
37242;DHT22;23135;51.078;12.108;2024-03-02T08:02:59;7.10;99.90
37242;DHT22;23135;51.078;12.108;2024-03-02T08:05:25;7.20;99.90
37242;DHT22;23135;51.078;12.108;2024-03-02T08:07:51;7.20;99.90
37242;DHT22;23135;51.078;12.108;2024-03-02T08:10:19;7.20;99.90
37242;DHT22;23135;51.078;12.108;2024-03-02T08:12:45;7.20;99.90
37242;DHT22;23135;51.078;12.108;2024-03-02T08:15:11;7.20;99.90
37242;DHT22;23135;51.078;12.108;2024-03-02T08:17:40;7.30;99.90
37242;DHT22;23135;51.078;12.108;2024-03-02T08:20:11;7.30;99.90
37242;DHT22;23135;51.078;12.108;2024-03-02T08:22:37;7.40;99.90
37242;DHT22;23135;51.078;12.108;2024-03-02T08:25:03;7.40;99.90
37242;DHT22;23135;51.078;12.108;2024-03-02T08:27:28;7.50;99.90
37242;DHT22;23135;51.078;12.108;2024-03-02T08:29:54;7.60;99.90
37242;DHT22;23135;51.078;12.108;2024-03-02T08:32:20;7.70;99.90
37242;DHT22;23135;51.078;12.108;2024-03-02T08:34:45;7.80;99.90
37242;DHT22;23135;51.078;12.108;2024-03-02T08:37:11;7.80;99.90
37242;DHT22;23135;51.078;12.108;2024-03-02T08:39:36;8.00;99.90
37242;DHT22;23135;51.078;12.108;2024-03-02T08:42:02;8.00;99.90
37242;DHT22;23135;51.078;12.108;2024-03-02T08:44:29;8.10;99.90
37242;DHT22;23135;51.078;12.108;2024-03-02T08:46:55;8.10;99.90
37242;DHT22;23135;51.078;12.108;2024-03-02T08:49:22;8.20;99.90
37242;DHT22;23135;51.078;12.108;2024-03-02T08:51:47;8.20;99.90
37242;DHT22;23135;51.078;12.108;2024-03-02T08:54:21;8.40;99.90
37242;DHT22;23135;51.078;12.108;2024-03-02T08:56:46;8.40;99.90
37242;DHT22;23135;51.078;12.108;2024-03-02T08:59:12;8.50;99.90
37242;DHT22;23135;51.078;12.108;2024-03-02T09:01:37;8.50;99.90
37242;DHT22;23135;51.078;12.108;2024-03-02T09:04:07;8.50;99.90
37242;DHT22;23135;51.078;12.108;2024-03-02T09:06:34;8.60;99.90
37242;DHT22;23135;51.078;12.108;2024-03-02T09:09:00;8.70;99.90
37242;DHT22;23135;51.078;12.108;2024-03-02T09:11:26;8.80;99.90
37242;DHT22;23135;51.078;12.108;2024-03-02T09:13:51;8.90;99.90
37242;DHT22;23135;51.078;12.108;2024-03-02T09:16:18;9.00;99.90
37242;DHT22;23135;51.078;12.108;2024-03-02T09:18:44;9.10;99.90
37242;DHT22;23135;51.078;12.108;2024-03-02T09:21:09;9.20;99.90
37242;DHT22;23135;51.078;12.108;2024-03-02T09:23:35;9.30;99.90
37242;DHT22;23135;51.078;12.108;2024-03-02T09:26:01;9.40;99.90
37242;DHT22;23135;51.078;12.108;2024-03-02T09:28:26;9.40;99.90
37242;DHT22;23135;51.078;12.108;2024-03-02T09:30:52;9.50;99.90
37242;DHT22;23135;51.078;12.108;2024-03-02T09:33:17;9.50;99.90
37242;DHT22;23135;51.078;12.108;2024-03-02T09:35:43;9.60;99.90
37242;DHT22;23135;51.078;12.108;2024-03-02T09:38:09;9.70;99.90
37242;DHT22;23135;51.078;12.108;2024-03-02T09:40:34;9.70;99.90
37242;DHT22;23135;51.078;12.108;2024-03-02T09:43:00;9.70;99.90
37242;DHT22;23135;51.078;12.108;2024-03-02T09:45:26;9.90;99.90
37242;DHT22;23135;51.078;12.108;2024-03-02T09:47:52;9.90;99.90
37242;DHT22;23135;51.078;12.108;2024-03-02T09:50:17;10.00;99.90
37242;DHT22;23135;51.078;12.108;2024-03-02T09:52:43;10.20;99.90
37242;DHT22;23135;51.078;12.108;2024-03-02T09:55:09;10.40;99.90
37242;DHT22;23135;51.078;12.108;2024-03-02T09:57:35;10.50;99.90
37242;DHT22;23135;51.078;12.108;2024-03-02T10:00:00;10.50;99.90
37242;DHT22;23135;51.078;12.108;2024-03-02T10:02:26;10.60;99.90
37242;DHT22;23135;51.078;12.108;2024-03-02T10:04:51;10.70;99.90
37242;DHT22;23135;51.078;12.108;2024-03-02T10:07:18;10.80;99.90
37242;DHT22;23135;51.078;12.108;2024-03-02T10:09:46;10.80;99.90
37242;DHT22;23135;51.078;12.108;2024-03-02T10:12:13;10.90;99.90
37242;DHT22;23135;51.078;12.108;2024-03-02T10:14:39;10.90;99.90
37242;DHT22;23135;51.078;12.108;2024-03-02T10:17:06;10.90;99.90
37242;DHT22;23135;51.078;12.108;2024-03-02T10:19:32;11.00;99.90
37242;DHT22;23135;51.078;12.108;2024-03-02T10:21:59;11.10;99.90
37242;DHT22;23135;51.078;12.108;2024-03-02T10:24:25;11.00;99.90
37242;DHT22;23135;51.078;12.108;2024-03-02T10:26:51;11.00;99.90
37242;DHT22;23135;51.078;12.108;2024-03-02T10:29:17;11.00;99.90
37242;DHT22;23135;51.078;12.108;2024-03-02T10:31:44;11.10;99.90
37242;DHT22;23135;51.078;12.108;2024-03-02T10:34:11;11.10;99.90
37242;DHT22;23135;51.078;12.108;2024-03-02T10:36:40;11.00;99.90
37242;DHT22;23135;51.078;12.108;2024-03-02T10:39:07;11.00;99.90
37242;DHT22;23135;51.078;12.108;2024-03-02T10:41:34;11.00;99.90
37242;DHT22;23135;51.078;12.108;2024-03-02T10:44:03;11.00;99.90
37242;DHT22;23135;51.078;12.108;2024-03-02T10:46:31;11.10;99.90
37242;DHT22;23135;51.078;12.108;2024-03-02T10:48:58;11.20;99.90
37242;DHT22;23135;51.078;12.108;2024-03-02T10:51:28;11.20;99.90
37242;DHT22;23135;51.078;12.108;2024-03-02T10:53:59;11.20;99.90
37242;DHT22;23135;51.078;12.108;2024-03-02T10:56:31;11.40;99.90
37242;DHT22;23135;51.078;12.108;2024-03-02T10:59:14;11.50;99.90
37242;DHT22;23135;51.078;12.108;2024-03-02T11:01:43;11.60;99.90
37242;DHT22;23135;51.078;12.108;2024-03-02T11:04:13;12.00;99.90
37242;DHT22;23135;51.078;12.108;2024-03-02T11:06:45;12.50;99.90
37242;DHT22;23135;51.078;12.108;2024-03-02T11:09:13;12.90;99.90
37242;DHT22;23135;51.078;12.108;2024-03-02T11:11:43;13.10;99.90
37242;DHT22;23135;51.078;12.108;2024-03-02T11:14:14;13.40;99.90
37242;DHT22;23135;51.078;12.108;2024-03-02T11:16:42;13.30;99.90
37242;DHT22;23135;51.078;12.108;2024-03-02T11:19:12;13.20;99.90
37242;DHT22;23135;51.078;12.108;2024-03-02T11:21:38;13.20;99.90
37242;DHT22;23135;51.078;12.108;2024-03-02T11:24:37;13.20;99.90
37242;DHT22;23135;51.078;12.108;2024-03-02T11:27:04;13.30;99.90
37242;DHT22;23135;51.078;12.108;2024-03-02T11:32:06;13.50;99.90
37242;DHT22;23135;51.078;12.108;2024-03-02T11:34:33;13.40;99.90
37242;DHT22;23135;51.078;12.108;2024-03-02T11:36:59;13.30;99.90
37242;DHT22;23135;51.078;12.108;2024-03-02T11:39:27;13.40;99.90
37242;DHT22;23135;51.078;12.108;2024-03-02T11:41:53;13.60;99.90
37242;DHT22;23135;51.078;12.108;2024-03-02T11:44:18;13.60;99.90
37242;DHT22;23135;51.078;12.108;2024-03-02T11:47:00;13.70;99.90
37242;DHT22;23135;51.078;12.108;2024-03-02T11:49:56;14.00;99.90
37242;DHT22;23135;51.078;12.108;2024-03-02T11:52:22;13.90;99.90
37242;DHT22;23135;51.078;12.108;2024-03-02T11:54:49;13.80;99.90
37242;DHT22;23135;51.078;12.108;2024-03-02T11:57:18;13.80;99.90
37242;DHT22;23135;51.078;12.108;2024-03-02T11:59:45;14.00;99.90
37242;DHT22;23135;51.078;12.108;2024-03-02T12:02:20;14.20;99.90
37242;DHT22;23135;51.078;12.108;2024-03-02T12:04:48;14.40;99.90
37242;DHT22;23135;51.078;12.108;2024-03-02T12:07:23;14.50;99.90
37242;DHT22;23135;51.078;12.108;2024-03-02T12:09:59;14.60;99.90
37242;DHT22;23135;51.078;12.108;2024-03-02T12:12:25;14.70;99.90
37242;DHT22;23135;51.078;12.108;2024-03-02T12:14:53;14.80;99.90
37242;DHT22;23135;51.078;12.108;2024-03-02T12:17:20;14.70;99.90
37242;DHT22;23135;51.078;12.108;2024-03-02T12:19:46;14.80;99.90
37242;DHT22;23135;51.078;12.108;2024-03-02T12:22:12;15.00;99.90
37242;DHT22;23135;51.078;12.108;2024-03-02T12:24:37;15.30;99.90
37242;DHT22;23135;51.078;12.108;2024-03-02T12:27:05;15.60;99.90
37242;DHT22;23135;51.078;12.108;2024-03-02T12:29:30;15.80;99.90
37242;DHT22;23135;51.078;12.108;2024-03-02T12:31:56;16.10;99.90
37242;DHT22;23135;51.078;12.108;2024-03-02T12:34:22;16.20;99.90
37242;DHT22;23135;51.078;12.108;2024-03-02T12:36:49;16.20;99.90
37242;DHT22;23135;51.078;12.108;2024-03-02T12:39:18;16.40;99.90
37242;DHT22;23135;51.078;12.108;2024-03-02T12:41:45;16.40;99.90
37242;DHT22;23135;51.078;12.108;2024-03-02T12:44:11;15.90;99.90
37242;DHT22;23135;51.078;12.108;2024-03-02T12:46:36;16.00;99.90
37242;DHT22;23135;51.078;12.108;2024-03-02T12:49:09;16.10;99.90
37242;DHT22;23135;51.078;12.108;2024-03-02T12:51:36;15.90;99.90
37242;DHT22;23135;51.078;12.108;2024-03-02T12:54:02;15.80;99.90
37242;DHT22;23135;51.078;12.108;2024-03-02T12:56:29;15.80;99.90
37242;DHT22;23135;51.078;12.108;2024-03-02T12:58:55;15.90;99.90
37242;DHT22;23135;51.078;12.108;2024-03-02T13:01:21;16.10;99.90
37242;DHT22;23135;51.078;12.108;2024-03-02T13:03:49;16.10;99.90
37242;DHT22;23135;51.078;12.108;2024-03-02T13:06:17;16.00;99.90
37242;DHT22;23135;51.078;12.108;2024-03-02T13:08:42;16.10;99.90
37242;DHT22;23135;51.078;12.108;2024-03-02T13:11:08;16.40;99.90
37242;DHT22;23135;51.078;12.108;2024-03-02T13:13:34;16.60;99.90
37242;DHT22;23135;51.078;12.108;2024-03-02T13:16:00;16.60;99.90
37242;DHT22;23135;51.078;12.108;2024-03-02T13:18:26;16.40;99.90
37242;DHT22;23135;51.078;12.108;2024-03-02T13:20:52;16.20;99.90
37242;DHT22;23135;51.078;12.108;2024-03-02T13:23:17;16.40;99.90
37242;DHT22;23135;51.078;12.108;2024-03-02T13:25:43;16.60;99.90
37242;DHT22;23135;51.078;12.108;2024-03-02T13:28:09;16.60;99.90
37242;DHT22;23135;51.078;12.108;2024-03-02T13:30:34;16.40;99.90
37242;DHT22;23135;51.078;12.108;2024-03-02T13:33:00;16.30;99.90
37242;DHT22;23135;51.078;12.108;2024-03-02T13:35:26;16.30;99.90
37242;DHT22;23135;51.078;12.108;2024-03-02T13:37:51;16.20;99.90
37242;DHT22;23135;51.078;12.108;2024-03-02T13:40:17;16.00;99.90
37242;DHT22;23135;51.078;12.108;2024-03-02T13:42:46;15.70;99.90
37242;DHT22;23135;51.078;12.108;2024-03-02T13:45:12;15.80;99.90
37242;DHT22;23135;51.078;12.108;2024-03-02T13:47:38;15.90;99.90
37242;DHT22;23135;51.078;12.108;2024-03-02T13:50:04;16.00;99.90
37242;DHT22;23135;51.078;12.108;2024-03-02T13:52:30;16.10;99.90
37242;DHT22;23135;51.078;12.108;2024-03-02T13:54:56;16.00;99.90
37242;DHT22;23135;51.078;12.108;2024-03-02T13:57:22;16.00;99.90
37242;DHT22;23135;51.078;12.108;2024-03-02T13:59:47;15.90;99.90
37242;DHT22;23135;51.078;12.108;2024-03-02T14:02:13;16.20;99.90
37242;DHT22;23135;51.078;12.108;2024-03-02T14:04:40;15.90;99.90
37242;DHT22;23135;51.078;12.108;2024-03-02T14:07:05;15.90;99.90
37242;DHT22;23135;51.078;12.108;2024-03-02T14:09:34;16.00;99.90
37242;DHT22;23135;51.078;12.108;2024-03-02T14:12:00;16.10;99.90
37242;DHT22;23135;51.078;12.108;2024-03-02T14:14:26;16.30;99.90
37242;DHT22;23135;51.078;12.108;2024-03-02T14:16:53;16.30;99.90
37242;DHT22;23135;51.078;12.108;2024-03-02T14:19:19;16.30;99.90
37242;DHT22;23135;51.078;12.108;2024-03-02T14:21:46;16.20;99.90
37242;DHT22;23135;51.078;12.108;2024-03-02T14:24:13;16.20;99.90
37242;DHT22;23135;51.078;12.108;2024-03-02T14:26:38;16.00;99.90
37242;DHT22;23135;51.078;12.108;2024-03-02T14:29:04;16.00;99.90
37242;DHT22;23135;51.078;12.108;2024-03-02T14:31:31;16.00;99.90
37242;DHT22;23135;51.078;12.108;2024-03-02T14:33:56;15.70;99.90
37242;DHT22;23135;51.078;12.108;2024-03-02T14:36:22;15.40;99.90
37242;DHT22;23135;51.078;12.108;2024-03-02T14:38:48;15.30;99.90
37242;DHT22;23135;51.078;12.108;2024-03-02T14:41:14;15.30;99.90
37242;DHT22;23135;51.078;12.108;2024-03-02T14:43:40;15.30;99.90
37242;DHT22;23135;51.078;12.108;2024-03-02T14:46:06;15.10;99.90
37242;DHT22;23135;51.078;12.108;2024-03-02T14:48:34;15.00;99.90
37242;DHT22;23135;51.078;12.108;2024-03-02T14:51:00;14.80;99.90
37242;DHT22;23135;51.078;12.108;2024-03-02T14:53:26;14.50;99.90
37242;DHT22;23135;51.078;12.108;2024-03-02T14:55:52;14.50;99.90
37242;DHT22;23135;51.078;12.108;2024-03-02T14:58:17;14.60;99.90
37242;DHT22;23135;51.078;12.108;2024-03-02T15:00:43;14.60;99.90
37242;DHT22;23135;51.078;12.108;2024-03-02T15:03:09;14.50;99.90
37242;DHT22;23135;51.078;12.108;2024-03-02T15:05:35;14.40;99.90
37242;DHT22;23135;51.078;12.108;2024-03-02T15:08:01;14.40;99.90
37242;DHT22;23135;51.078;12.108;2024-03-02T15:10:29;14.20;99.90
37242;DHT22;23135;51.078;12.108;2024-03-02T15:12:55;14.10;99.90
37242;DHT22;23135;51.078;12.108;2024-03-02T15:15:20;14.20;99.90
37242;DHT22;23135;51.078;12.108;2024-03-02T15:17:46;14.20;99.90
37242;DHT22;23135;51.078;12.108;2024-03-02T15:20:12;14.20;99.90
37242;DHT22;23135;51.078;12.108;2024-03-02T15:22:37;14.20;99.90
37242;DHT22;23135;51.078;12.108;2024-03-02T15:25:03;14.20;99.90
37242;DHT22;23135;51.078;12.108;2024-03-02T15:27:28;14.20;99.90
37242;DHT22;23135;51.078;12.108;2024-03-02T15:29:54;14.10;99.90